createdAt,value
2019-04-07T00:04:10.935Z,37.67
2019-04-07T00:06:42.933Z,37.07
2019-04-07T00:09:15.428Z,39.18
2019-04-07T00:11:47.402Z,39.80
2019-04-07T00:14:19.596Z,37.08
2019-04-07T00:16:51.833Z,36.25
2019-04-07T00:19:24.020Z,37.57
2019-04-07T00:21:56.054Z,33.42
2019-04-07T00:24:28.099Z,34.83
2019-04-07T00:26:59.829Z,33.13
2019-04-07T00:29:31.660Z,34.18
2019-04-07T00:32:03.591Z,33.58
2019-04-07T00:34:36.139Z,35.33
2019-04-07T00:37:08.143Z,33.33
2019-04-07T00:39:40.149Z,27.22
2019-04-07T00:42:12.097Z,31.73
2019-04-07T00:44:44.294Z,34.35
2019-04-07T00:47:16.056Z,33.80
2019-04-07T00:49:47.723Z,34.80
2019-04-07T00:52:22.178Z,30.12
2019-04-07T00:54:54.589Z,30.95
2019-04-07T00:57:26.455Z,27.05
2019-04-07T00:59:58.497Z,30.55
2019-04-07T01:02:31.107Z,26.12
2019-04-07T01:05:03.363Z,25.90
2019-04-07T01:07:36.227Z,28.87
2019-04-07T01:10:08.781Z,27.85
2019-04-07T01:12:41.269Z,22.22
2019-04-07T01:15:13.883Z,22.93
2019-04-07T01:17:46.553Z,26.15
2019-04-07T01:20:19.474Z,28.10
2019-04-07T01:22:51.592Z,17.62
2019-04-07T01:25:24.180Z,23.12
2019-04-07T01:27:56.617Z,19.77
2019-04-07T01:30:28.518Z,24.73
2019-04-07T01:33:00.926Z,25.32
2019-04-07T01:35:33.029Z,23.23
2019-04-07T01:38:05.240Z,21.23
2019-04-07T01:40:37.045Z,22.35
2019-04-07T01:43:33.997Z,25.40
2019-04-07T01:46:37.128Z,25.75
2019-04-07T01:49:35.098Z,24.65
2019-04-07T01:52:16.164Z,25.77
2019-04-07T01:55:13.243Z,27.82
2019-04-07T01:58:16.596Z,22.50
2019-04-07T02:01:08.494Z,26.77
2019-04-07T02:04:14.561Z,23.42
2019-04-07T02:07:11.719Z,29.65
2019-04-07T02:09:56.509Z,26.02
2019-04-07T02:12:46.633Z,30.72
2019-04-07T02:15:31.869Z,26.15
2019-04-07T02:18:25.365Z,26.45
2019-04-07T02:21:04.334Z,31.07
2019-04-07T02:24:04.853Z,30.08
2019-04-07T02:27:10.517Z,27.77
2019-04-07T02:30:04.296Z,30.80
2019-04-07T02:32:52.497Z,28.45
2019-04-07T02:35:46.562Z,25.08
2019-04-07T02:38:33.534Z,25.55
2019-04-07T02:41:17.811Z,25.00
2019-04-07T02:43:57.626Z,23.70
2019-04-07T02:46:58.845Z,26.52
2019-04-07T02:49:48.662Z,24.77
2019-04-07T02:52:39.754Z,27.85
2019-04-07T02:55:28.609Z,24.92
2019-04-07T02:58:07.835Z,28.32
2019-04-07T03:00:48.429Z,30.37
2019-04-07T03:03:42.728Z,31.57
2019-04-07T03:06:51.922Z,28.17
2019-04-07T03:09:54.750Z,24.63
2019-04-07T03:12:44.037Z,23.55
2019-04-07T03:15:33.208Z,19.60
2019-04-07T03:18:27.085Z,26.62
2019-04-07T03:21:33.163Z,27.37
2019-04-07T03:24:15.262Z,28.65
2019-04-07T03:27:21.972Z,26.00
2019-04-07T03:30:13.730Z,26.57
2019-04-07T03:33:13.530Z,25.30
2019-04-07T03:36:02.581Z,27.65
2019-04-07T03:38:50.342Z,27.30
2019-04-07T03:41:33.560Z,27.52
2019-04-07T03:44:34.294Z,22.52
2019-04-07T03:47:26.451Z,30.75
2019-04-07T03:50:16.309Z,30.17
2019-04-07T03:53:15.886Z,34.40
2019-04-07T03:56:01.871Z,41.80
2019-04-07T03:58:41.718Z,31.23
2019-04-07T04:01:35.569Z,30.55
2019-04-07T04:04:24.986Z,30.88
2019-04-07T04:07:28.374Z,34.30
2019-04-07T04:10:04.909Z,34.50
2019-04-07T04:12:53.729Z,29.80
2019-04-07T04:15:39.676Z,27.90
2019-04-07T04:18:11.958Z,26.40
2019-04-07T04:20:44.362Z,27.90
2019-04-07T04:23:16.085Z,30.40
2019-04-07T04:25:47.734Z,29.75
2019-04-07T04:28:20.399Z,29.70
2019-04-07T04:30:52.332Z,35.20
2019-04-07T04:33:24.578Z,40.73
2019-04-07T04:35:56.901Z,30.05
2019-04-07T04:38:29.771Z,35.03
2019-04-07T04:41:02.847Z,37.98
2019-04-07T04:43:34.934Z,48.05
2019-04-07T04:46:09.412Z,42.90
2019-04-07T04:48:40.978Z,45.75
2019-04-07T04:51:13.193Z,53.95
2019-04-07T04:53:45.671Z,59.70
2019-04-07T04:56:17.384Z,57.90
2019-04-07T04:58:50.397Z,55.23
2019-04-07T05:01:23.021Z,124.97
2019-04-07T05:03:54.626Z,96.50
2019-04-07T05:06:26.544Z,72.45
2019-04-07T05:08:58.116Z,62.05
2019-04-07T05:11:30.372Z,63.23
2019-04-07T05:14:02.134Z,56.03
2019-04-07T05:16:35.616Z,43.45
2019-04-07T05:19:07.421Z,41.00
2019-04-07T05:21:39.435Z,37.33
2019-04-07T05:24:11.510Z,35.48
2019-04-07T05:29:15.860Z,39.08
2019-04-07T05:31:47.883Z,31.93
2019-04-07T05:34:22.109Z,32.63
2019-04-07T05:36:53.366Z,47.10
2019-04-07T05:39:25.797Z,34.55
2019-04-07T05:41:58.024Z,28.77
2019-04-07T05:44:29.842Z,26.23
2019-04-07T05:47:01.649Z,26.82
2019-04-07T05:49:33.679Z,24.82
2019-04-07T05:52:06.047Z,30.68
2019-04-07T05:54:39.376Z,19.30
2019-04-07T05:57:11.882Z,22.67
2019-04-07T05:59:46.028Z,20.92
2019-04-07T06:02:17.907Z,24.63
2019-04-07T06:04:49.785Z,19.30
2019-04-07T06:07:25.662Z,19.45
2019-04-07T06:09:55.655Z,19.48
2019-04-07T06:12:27.308Z,20.92
2019-04-07T06:14:59.614Z,20.10
2019-04-07T06:17:31.487Z,21.43
2019-04-07T06:20:03.734Z,26.93
2019-04-07T06:22:35.903Z,23.12
2019-04-07T06:25:09.718Z,24.02
2019-04-07T06:27:44.930Z,25.30
2019-04-07T06:30:16.555Z,20.85
2019-04-07T06:35:19.270Z,37.25
2019-04-07T06:37:51.985Z,26.85
2019-04-07T06:40:24.272Z,22.07
2019-04-07T06:42:55.958Z,33.65
2019-04-07T06:45:33.375Z,38.10
2019-04-07T06:48:08.310Z,20.23
2019-04-07T06:51:07.108Z,26.37
2019-04-07T06:53:57.883Z,27.95
2019-04-07T06:56:52.467Z,61.90
2019-04-07T06:59:49.080Z,34.90
2019-04-07T07:02:31.796Z,30.17
2019-04-07T07:05:23.536Z,33.85
2019-04-07T07:08:14.245Z,24.65
2019-04-07T07:10:54.222Z,27.90
2019-04-07T07:13:45.103Z,26.90
2019-04-07T07:16:46.702Z,30.65
2019-04-07T07:19:36.468Z,24.40
2019-04-07T07:22:20.309Z,23.07
2019-04-07T07:24:55.739Z,22.60
2019-04-07T07:27:26.008Z,21.65
2019-04-07T07:29:57.851Z,27.98
2019-04-07T07:32:30.228Z,25.77
2019-04-07T07:35:04.195Z,25.48
2019-04-07T07:37:36.512Z,25.95
2019-04-07T07:40:09.895Z,22.35
2019-04-07T07:42:42.088Z,26.45
2019-04-07T07:45:15.624Z,26.97
2019-04-07T07:47:51.311Z,26.93
2019-04-07T07:50:21.070Z,30.17
2019-04-07T07:52:54.580Z,27.45
2019-04-07T07:55:27.396Z,23.90
2019-04-07T07:57:59.433Z,27.42
2019-04-07T08:00:32.006Z,24.57
2019-04-07T08:03:03.764Z,25.77
2019-04-07T08:05:36.583Z,27.45
2019-04-07T08:08:09.293Z,23.87
2019-04-07T08:10:41.239Z,29.10
2019-04-07T08:13:12.945Z,25.65
2019-04-07T08:15:45.776Z,26.20
2019-04-07T08:18:19.615Z,24.95
2019-04-07T08:20:51.243Z,27.22
2019-04-07T08:23:23.730Z,21.45
2019-04-07T08:25:57.108Z,29.52
2019-04-07T08:28:28.834Z,24.80
2019-04-07T08:31:00.859Z,29.70
2019-04-07T08:33:33.210Z,27.80
2019-04-07T08:36:09.000Z,29.07
2019-04-07T08:38:39.896Z,22.65
2019-04-07T08:41:15.420Z,23.45
2019-04-07T08:43:47.123Z,27.27
2019-04-07T08:46:18.894Z,23.15
2019-04-07T08:48:53.570Z,23.50
2019-04-07T08:51:27.424Z,28.55
2019-04-07T08:53:59.806Z,22.55
2019-04-07T08:56:31.412Z,23.80
2019-04-07T08:59:03.803Z,22.45
2019-04-07T09:01:36.136Z,22.95
2019-04-07T09:04:07.767Z,23.98
2019-04-07T09:06:40.914Z,28.02
2019-04-07T09:09:13.949Z,25.90
2019-04-07T09:11:45.952Z,29.98
2019-04-07T09:14:18.452Z,32.65
2019-04-07T09:17:31.579Z,24.23
2019-04-07T09:20:20.042Z,27.13
2019-04-07T09:23:03.038Z,18.62
2019-04-07T09:26:00.155Z,22.35
2019-04-07T09:28:40.326Z,17.82
2019-04-07T09:31:28.194Z,22.07
2019-04-07T09:34:22.282Z,18.02
2019-04-07T09:37:12.261Z,16.82
2019-04-07T09:40:18.533Z,18.60
2019-04-07T09:43:17.587Z,18.37
2019-04-07T09:46:09.221Z,19.05
2019-04-07T09:49:07.807Z,26.25
2019-04-07T09:51:58.451Z,21.30
2019-04-07T09:54:44.461Z,19.40
2019-04-07T09:57:37.507Z,19.48
2019-04-07T10:00:27.915Z,18.52
2019-04-07T10:03:13.666Z,17.00
2019-04-07T10:09:01.078Z,21.97
2019-04-07T10:11:53.320Z,20.45
2019-04-07T10:14:44.013Z,21.37
2019-04-07T10:17:29.028Z,16.40
2019-04-07T10:20:15.528Z,14.35
2019-04-07T10:23:05.198Z,15.45
2019-04-07T10:25:56.150Z,28.30
2019-04-07T10:28:39.151Z,17.73
2019-04-07T10:31:38.470Z,17.47
2019-04-07T10:34:31.996Z,14.18
2019-04-07T10:37:15.706Z,15.15
2019-04-07T10:40:18.172Z,15.40
2019-04-07T10:42:51.430Z,24.63
2019-04-07T10:45:48.353Z,20.82
2019-04-07T10:48:54.513Z,46.15
2019-04-07T10:51:45.956Z,36.98
2019-04-07T10:54:37.063Z,17.42
2019-04-07T10:57:17.810Z,33.28
2019-04-07T11:00:09.041Z,15.95
2019-04-07T11:03:12.120Z,20.50
2019-04-07T11:06:09.004Z,20.17
2019-04-07T11:08:51.891Z,16.70
2019-04-07T11:11:41.413Z,16.95
2019-04-07T11:14:44.470Z,18.60
2019-04-07T11:17:26.130Z,18.85
2019-04-07T11:20:06.935Z,17.85
2019-04-07T11:23:13.066Z,18.40
2019-04-07T11:26:04.658Z,20.50
2019-04-07T11:28:49.086Z,20.43
2019-04-07T11:31:46.016Z,20.55
2019-04-07T11:34:30.787Z,19.90
2019-04-07T11:37:23.294Z,19.05
2019-04-07T11:40:10.747Z,19.37
2019-04-07T11:43:00.812Z,20.85
2019-04-07T11:45:58.488Z,22.17
2019-04-07T11:48:35.013Z,21.20
2019-04-07T11:51:17.443Z,24.05
2019-04-07T11:53:58.868Z,18.15
2019-04-07T11:56:40.010Z,22.90
2019-04-07T11:59:47.489Z,21.60
2019-04-07T12:02:24.941Z,23.30
2019-04-07T12:05:13.803Z,24.98
2019-04-07T12:08:11.504Z,21.68
2019-04-07T12:11:04.682Z,30.60
2019-04-07T12:13:50.944Z,30.05
2019-04-07T12:16:41.479Z,24.30
2019-04-07T12:19:24.794Z,21.27
2019-04-07T12:22:21.685Z,21.12
2019-04-07T12:25:25.624Z,31.45
2019-04-07T12:28:17.780Z,22.80
2019-04-07T12:31:02.027Z,23.02
2019-04-07T12:34:05.009Z,23.75
2019-04-07T12:37:06.223Z,19.70
2019-04-07T12:40:07.600Z,20.35
2019-04-07T12:42:55.034Z,25.08
2019-04-07T12:45:49.362Z,20.15
2019-04-07T12:48:45.789Z,60.63
2019-04-07T12:51:25.436Z,33.30
2019-04-07T12:54:05.341Z,22.05
2019-04-07T12:57:07.350Z,25.95
2019-04-07T12:59:57.829Z,21.12
2019-04-07T13:02:47.585Z,22.67
2019-04-07T13:05:34.488Z,27.05
2019-04-07T13:08:31.452Z,21.93
2019-04-07T13:11:31.288Z,24.80
2019-04-07T13:14:09.886Z,22.00
2019-04-07T13:17:02.825Z,26.82
2019-04-07T13:19:44.128Z,27.87
2019-04-07T13:22:46.118Z,22.07
2019-04-07T13:25:55.073Z,19.53
2019-04-07T13:28:47.904Z,23.38
2019-04-07T13:31:30.334Z,20.82
2019-04-07T13:34:13.668Z,26.12
2019-04-07T13:36:58.000Z,25.10
2019-04-07T13:39:48.852Z,24.12
2019-04-07T13:42:32.512Z,22.55
2019-04-07T13:45:44.655Z,28.40
2019-04-07T13:48:39.975Z,24.55
2019-04-07T13:51:22.585Z,24.70
2019-04-07T13:54:20.092Z,27.37
2019-04-07T13:57:10.325Z,21.15
2019-04-07T14:00:12.877Z,25.35
2019-04-07T14:02:51.183Z,20.20
2019-04-07T14:05:44.582Z,25.30
2019-04-07T14:08:31.271Z,15.72
2019-04-07T14:11:29.633Z,28.57
2019-04-07T14:14:30.321Z,20.12
2019-04-07T14:17:19.693Z,17.07
2019-04-07T14:20:07.126Z,18.75
2019-04-07T14:22:59.156Z,13.93
2019-04-07T14:25:45.337Z,20.95
2019-04-07T14:28:53.726Z,21.52
2019-04-07T14:31:43.275Z,22.90
2019-04-07T14:34:27.466Z,20.27
2019-04-07T14:37:24.234Z,15.80
2019-04-07T14:40:01.928Z,19.27
2019-04-07T14:42:42.825Z,22.20
2019-04-07T14:45:34.055Z,33.38
2019-04-07T14:48:22.482Z,30.52
2019-04-07T14:51:11.560Z,25.37
2019-04-07T14:54:06.451Z,22.82
2019-04-07T14:57:08.773Z,30.23
2019-04-07T15:00:02.251Z,21.05
2019-04-07T15:02:36.511Z,31.97
2019-04-07T15:05:30.943Z,30.92
2019-04-07T15:08:21.646Z,23.42
2019-04-07T15:10:58.240Z,20.88
2019-04-07T15:13:30.965Z,23.38
2019-04-07T15:16:03.500Z,28.17
2019-04-07T15:18:36.010Z,35.25
2019-04-07T15:21:08.036Z,25.32
2019-04-07T15:23:40.343Z,26.30
2019-04-07T15:26:16.570Z,28.05
2019-04-07T15:28:49.293Z,23.42
2019-04-07T15:31:21.771Z,19.37
2019-04-07T15:33:53.400Z,27.80
2019-04-07T15:36:25.413Z,35.13
2019-04-07T15:38:58.683Z,30.97
2019-04-07T15:41:30.828Z,35.48
2019-04-07T15:44:06.331Z,30.57
2019-04-07T15:46:36.684Z,27.70
2019-04-07T15:49:08.829Z,27.10
2019-04-07T15:51:41.640Z,43.10
2019-04-07T15:54:14.601Z,46.53
2019-04-07T15:56:49.294Z,39.27
2019-04-07T15:59:21.101Z,84.47
2019-04-07T16:01:54.380Z,87.02
2019-04-07T16:04:28.649Z,74.20
2019-04-07T16:07:00.348Z,63.02
2019-04-07T16:09:41.067Z,49.10
2019-04-07T16:12:06.555Z,46.98
2019-04-07T16:14:40.274Z,37.35
2019-04-07T16:17:12.323Z,46.20
2019-04-07T16:19:50.490Z,42.27
2019-04-07T16:22:17.431Z,31.40
2019-04-07T16:24:51.578Z,47.03
2019-04-07T16:27:22.810Z,27.98
2019-04-07T16:29:55.869Z,25.52
2019-04-07T16:35:00.584Z,27.73
2019-04-07T16:37:33.571Z,30.65
2019-04-07T16:40:10.413Z,28.65
2019-04-07T16:42:40.088Z,29.60
2019-04-07T16:45:16.465Z,35.38
2019-04-07T16:47:46.033Z,33.92
2019-04-07T16:50:20.129Z,39.53
2019-04-07T16:52:51.742Z,36.50
2019-04-07T16:55:46.605Z,45.75
2019-04-07T16:58:17.771Z,41.20
2019-04-07T17:00:49.970Z,43.68
2019-04-07T17:03:22.010Z,44.58
2019-04-07T17:05:57.370Z,46.05
2019-04-07T17:08:28.727Z,72.65
2019-04-07T17:11:05.222Z,45.83
2019-04-07T17:13:40.789Z,38.38
2019-04-07T17:16:10.108Z,41.00
2019-04-07T17:18:43.345Z,37.85
2019-04-07T17:21:20.519Z,43.38
2019-04-07T17:23:55.378Z,37.98
2019-04-07T17:26:26.442Z,37.75
2019-04-07T17:28:59.542Z,54.37
2019-04-07T17:34:07.331Z,48.13
2019-04-07T17:36:37.635Z,41.35
2019-04-07T17:39:18.558Z,43.63
2019-04-07T17:41:52.746Z,38.30
2019-04-07T17:44:43.512Z,43.28
2019-04-07T17:47:36.769Z,37.78
2019-04-07T17:50:31.716Z,42.43
2019-04-07T17:53:21.471Z,43.68
2019-04-07T17:56:24.280Z,47.58
2019-04-07T17:59:30.333Z,42.23
2019-04-07T18:02:28.052Z,41.98
2019-04-07T18:05:26.903Z,56.83
2019-04-07T18:08:20.500Z,41.58
2019-04-07T18:11:23.386Z,39.60
2019-04-07T18:14:20.840Z,40.73
2019-04-07T18:17:26.828Z,39.50
2019-04-07T18:20:17.367Z,41.35
2019-04-07T18:23:07.446Z,37.98
2019-04-07T18:25:53.164Z,36.68
2019-04-07T18:28:39.174Z,34.73
2019-04-07T18:31:40.123Z,35.50
2019-04-07T18:34:27.463Z,42.75
2019-04-07T18:37:26.893Z,42.45
2019-04-07T18:40:17.862Z,39.73
2019-04-07T18:43:05.170Z,36.85
2019-04-07T18:45:59.036Z,36.30
2019-04-07T18:48:49.458Z,38.20
2019-04-07T18:51:50.403Z,36.15
2019-04-07T18:54:41.103Z,30.52
2019-04-07T18:57:32.229Z,35.00
2019-04-07T19:00:24.585Z,38.65
2019-04-07T19:03:18.164Z,33.67
2019-04-07T19:06:08.608Z,36.80
2019-04-07T19:09:05.422Z,40.58
2019-04-07T19:12:13.399Z,34.00
2019-04-07T19:15:09.059Z,31.77
2019-04-07T19:18:00.672Z,34.48
2019-04-07T19:20:53.550Z,32.30
2019-04-07T19:26:31.572Z,29.27
2019-04-07T19:29:28.653Z,37.45
2019-04-07T19:32:14.691Z,28.00
2019-04-07T19:35:15.924Z,33.38
2019-04-07T19:38:06.860Z,28.95
2019-04-07T19:40:49.344Z,31.95
2019-04-07T19:43:45.882Z,34.35
2019-04-07T19:46:35.170Z,30.97
2019-04-07T19:49:22.622Z,34.05
2019-04-07T19:52:12.514Z,36.05
2019-04-07T19:55:06.076Z,38.33
2019-04-07T20:01:01.208Z,39.15
2019-04-07T20:03:59.864Z,34.75
2019-04-07T20:06:55.461Z,37.38
2019-04-07T20:09:58.892Z,38.25
2019-04-07T20:12:47.854Z,38.40
2019-04-07T20:15:45.063Z,37.65
2019-04-07T20:18:30.383Z,37.83
2019-04-07T20:21:13.185Z,39.38
2019-04-07T20:24:23.905Z,42.75
2019-04-07T20:27:31.877Z,36.85
2019-04-07T20:30:21.678Z,36.20
2019-04-07T20:33:18.455Z,40.40
2019-04-07T20:36:06.663Z,38.50
2019-04-07T20:39:00.129Z,39.00
2019-04-07T20:41:43.729Z,43.45
2019-04-07T20:44:34.443Z,38.55
2019-04-07T20:47:26.353Z,40.83
2019-04-07T20:50:14.024Z,40.43
2019-04-07T20:53:14.814Z,38.55
2019-04-07T20:56:02.979Z,51.35
2019-04-07T20:58:58.006Z,45.98
2019-04-07T21:02:07.098Z,59.63
2019-04-07T21:04:54.931Z,41.40
2019-04-07T21:07:59.725Z,46.55
2019-04-07T21:10:58.475Z,45.55
2019-04-07T21:13:48.287Z,45.78
2019-04-07T21:16:47.845Z,38.98
2019-04-07T21:19:42.758Z,47.85
2019-04-07T21:22:24.905Z,46.92
2019-04-07T21:25:13.511Z,41.15
2019-04-07T21:28:07.818Z,39.13
2019-04-07T21:30:48.397Z,42.55
2019-04-07T21:33:38.800Z,41.55
2019-04-07T21:36:28.059Z,47.53
2019-04-07T21:39:21.666Z,40.15
2019-04-07T21:42:09.311Z,41.75
2019-04-07T21:44:52.012Z,48.28
2019-04-07T21:47:36.558Z,52.50
2019-04-07T21:50:22.918Z,42.75
2019-04-07T21:53:25.714Z,43.40
2019-04-07T21:56:28.902Z,44.30
2019-04-07T21:59:38.048Z,44.13
2019-04-07T22:02:26.593Z,43.20
2019-04-07T22:05:19.880Z,46.75
2019-04-07T22:08:08.082Z,48.00
2019-04-07T22:10:37.971Z,47.08
2019-04-07T22:13:09.978Z,49.05
2019-04-07T22:15:48.296Z,47.55
2019-04-07T22:18:15.227Z,47.80
2019-04-07T22:20:47.885Z,45.73
2019-04-07T22:23:21.486Z,46.33
2019-04-07T22:25:54.122Z,47.30
2019-04-07T22:28:28.409Z,42.62
2019-04-07T22:30:59.411Z,43.70
2019-04-07T22:33:33.450Z,42.98
2019-04-07T22:36:05.865Z,41.13
2019-04-07T22:38:37.698Z,44.85
2019-04-07T22:41:10.097Z,43.85
2019-04-07T22:43:42.102Z,43.60
2019-04-07T22:46:19.458Z,45.05
2019-04-07T22:48:48.069Z,40.33
2019-04-07T22:51:20.877Z,41.42
2019-04-07T22:53:56.126Z,41.02
2019-04-07T22:58:56.252Z,39.70
2019-04-07T23:01:29.322Z,41.70
2019-04-07T23:04:01.520Z,41.02
2019-04-07T23:06:34.102Z,44.10
2019-04-07T23:09:07.914Z,39.60
2019-04-07T23:11:39.880Z,43.85
2019-04-07T23:14:11.908Z,45.05
2019-04-07T23:16:44.321Z,42.85
2019-04-07T23:19:16.500Z,43.92
2019-04-07T23:21:47.998Z,49.42
2019-04-07T23:24:19.678Z,48.38
2019-04-07T23:26:51.364Z,51.85
2019-04-07T23:29:23.112Z,50.33
2019-04-07T23:31:55.563Z,52.17
2019-04-07T23:34:27.585Z,50.55
2019-04-07T23:36:59.732Z,55.67
2019-04-07T23:39:31.519Z,55.80
2019-04-07T23:42:03.478Z,55.35
2019-04-07T23:44:35.294Z,49.05
2019-04-07T23:47:07.127Z,50.73
2019-04-07T23:49:38.773Z,51.53
2019-04-07T23:52:11.066Z,49.33
2019-04-07T23:54:42.898Z,50.87
2019-04-07T23:57:15.569Z,43.33
2019-04-07T23:59:48.577Z,42.10
